createdAt,value
2023-01-21T00:01:13.255Z,1.40
2023-01-21T00:03:42.770Z,1.40
2023-01-21T00:06:11.379Z,1.50
2023-01-21T00:08:39.440Z,1.50
2023-01-21T00:11:07.993Z,1.40
2023-01-21T00:13:36.747Z,1.40
2023-01-21T00:16:05.531Z,1.30
2023-01-21T00:18:34.242Z,1.30
2023-01-21T00:21:03.943Z,1.30
2023-01-21T00:23:32.042Z,1.30
2023-01-21T00:26:01.281Z,1.40
2023-01-21T00:28:30.144Z,1.40
2023-01-21T00:30:59.371Z,1.40
2023-01-21T00:33:27.976Z,1.30
2023-01-21T00:36:00.519Z,1.20
2023-01-21T00:38:30.528Z,1.10
2023-01-21T00:41:02.582Z,1.20
2023-01-21T00:43:30.843Z,1.30
2023-01-21T00:45:59.442Z,1.30
2023-01-21T00:48:28.779Z,1.30
2023-01-21T00:51:00.571Z,1.30
2023-01-21T00:53:32.337Z,1.30
2023-01-21T00:56:01.428Z,1.40
2023-01-21T00:58:30.079Z,1.30
2023-01-21T01:01:06.216Z,1.30
2023-01-21T01:03:35.084Z,1.50
2023-01-21T01:06:04.425Z,1.40
2023-01-21T01:08:34.394Z,1.50
2023-01-21T01:11:03.032Z,1.50
2023-01-21T01:13:33.658Z,1.40
2023-01-21T01:16:02.633Z,1.20
2023-01-21T01:18:32.562Z,1.20
2023-01-21T01:21:01.525Z,1.10
2023-01-21T01:23:30.194Z,1.10
2023-01-21T01:26:01.493Z,1.20
2023-01-21T01:28:30.090Z,1.20
2023-01-21T01:30:59.112Z,1.00
2023-01-21T01:33:27.931Z,0.90
2023-01-21T01:35:56.279Z,1.00
2023-01-21T01:38:24.376Z,1.00
2023-01-21T01:40:53.715Z,1.00
2023-01-21T01:43:25.127Z,0.80
2023-01-21T01:45:54.068Z,0.90
2023-01-21T01:48:27.338Z,0.90
2023-01-21T01:50:56.618Z,1.00
2023-01-21T01:53:25.946Z,1.00
2023-01-21T01:55:54.432Z,1.10
2023-01-21T01:58:24.072Z,1.10
2023-01-21T02:00:52.319Z,1.10
2023-01-21T02:03:37.628Z,1.10
2023-01-21T02:06:06.038Z,1.10
2023-01-21T02:08:36.224Z,1.10
2023-01-21T02:11:11.781Z,1.00
2023-01-21T02:13:43.626Z,1.00
2023-01-21T02:16:34.260Z,0.90
2023-01-21T02:19:16.419Z,0.90
2023-01-21T02:21:56.699Z,1.00
2023-01-21T02:24:59.260Z,1.00
2023-01-21T02:27:43.699Z,1.00
2023-01-21T02:30:48.629Z,1.00
2023-01-21T02:33:46.317Z,1.10
2023-01-21T02:36:31.359Z,1.00
2023-01-21T02:39:07.768Z,1.00
2023-01-21T02:41:47.002Z,1.10
2023-01-21T02:44:20.729Z,1.10
2023-01-21T02:46:53.756Z,1.10
2023-01-21T02:49:28.078Z,1.20
2023-01-21T02:51:56.056Z,1.00
2023-01-21T02:54:49.881Z,0.90
2023-01-21T02:57:31.207Z,1.00
2023-01-21T03:00:01.356Z,1.00
2023-01-21T03:02:54.861Z,0.90
2023-01-21T03:05:30.492Z,0.90
2023-01-21T03:08:06.375Z,1.00
2023-01-21T03:10:39.758Z,0.90
2023-01-21T03:13:14.085Z,0.90
2023-01-21T03:16:04.782Z,0.90
2023-01-21T03:18:37.306Z,0.80
2023-01-21T03:21:10.089Z,0.90
2023-01-21T03:23:40.811Z,1.00
2023-01-21T03:26:10.419Z,1.00
2023-01-21T03:28:45.114Z,0.90
2023-01-21T03:31:18.209Z,1.00
2023-01-21T03:33:50.140Z,0.90
2023-01-21T03:36:27.768Z,0.90
2023-01-21T03:38:58.845Z,0.80
2023-01-21T03:41:34.004Z,0.80
2023-01-21T03:44:02.017Z,0.80
2023-01-21T03:46:35.826Z,0.80
2023-01-21T03:49:07.935Z,0.90
2023-01-21T03:51:41.002Z,1.00
2023-01-21T03:54:08.995Z,1.10
2023-01-21T03:56:36.997Z,1.10
2023-01-21T03:59:04.981Z,1.10
2023-01-21T04:01:33.001Z,1.20
2023-01-21T04:04:01.047Z,1.30
2023-01-21T04:06:29.009Z,1.30
2023-01-21T04:08:58.357Z,1.30
2023-01-21T04:11:26.371Z,1.30
2023-01-21T04:13:54.335Z,1.30
2023-01-21T04:16:23.719Z,1.30
2023-01-21T04:18:51.745Z,1.30
2023-01-21T04:21:19.716Z,1.40
2023-01-21T04:23:47.713Z,1.40
2023-01-21T04:26:17.474Z,1.30
2023-01-21T04:28:45.467Z,1.40
2023-01-21T04:31:13.454Z,1.40
2023-01-21T04:33:41.454Z,1.40
2023-01-21T04:36:09.842Z,1.50
2023-01-21T04:38:37.893Z,1.60
2023-01-21T04:41:06.049Z,1.50
2023-01-21T04:43:35.388Z,1.50
2023-01-21T04:46:04.159Z,1.40
2023-01-21T04:48:33.259Z,1.30
2023-01-21T04:51:01.274Z,1.40
2023-01-21T04:53:29.263Z,1.50
2023-01-21T04:55:57.261Z,1.50
2023-01-21T04:58:26.559Z,1.50
2023-01-21T05:00:57.175Z,1.40
2023-01-21T05:03:25.178Z,1.40
2023-01-21T05:05:53.161Z,1.30
2023-01-21T05:08:21.123Z,1.20
2023-01-21T05:10:49.076Z,1.20
2023-01-21T05:13:17.030Z,1.30
2023-01-21T05:15:45.012Z,1.30
2023-01-21T05:18:14.405Z,1.30
2023-01-21T05:20:42.460Z,1.20
2023-01-21T05:23:10.436Z,1.10
2023-01-21T05:25:38.458Z,1.20
2023-01-21T05:28:06.549Z,1.20
2023-01-21T05:30:34.532Z,1.20
2023-01-21T05:33:03.191Z,1.20
2023-01-21T05:35:32.588Z,1.20
2023-01-21T05:38:00.615Z,1.30
2023-01-21T05:40:28.663Z,1.30
2023-01-21T05:42:56.630Z,1.30
2023-01-21T05:45:24.766Z,1.10
2023-01-21T05:47:52.778Z,1.30
2023-01-21T05:50:20.901Z,1.30
2023-01-21T05:52:50.266Z,1.30
2023-01-21T05:55:18.391Z,1.30
2023-01-21T05:57:46.377Z,1.40
2023-01-21T06:00:16.099Z,1.50
2023-01-21T06:02:44.442Z,1.40
2023-01-21T06:05:12.435Z,1.40
2023-01-21T06:07:40.412Z,1.40
2023-01-21T06:10:11.148Z,1.50
2023-01-21T06:12:39.165Z,1.50
2023-01-21T06:15:08.095Z,1.50
2023-01-21T06:17:39.105Z,1.60
2023-01-21T06:20:08.672Z,1.60
2023-01-21T06:22:37.056Z,1.50
2023-01-21T06:25:05.309Z,1.50
2023-01-21T06:27:37.174Z,1.50
2023-01-21T06:30:06.024Z,1.50
2023-01-21T06:32:34.202Z,1.60
2023-01-21T06:35:02.181Z,1.60
2023-01-21T06:37:30.161Z,1.60
2023-01-21T06:39:58.116Z,1.60
2023-01-21T06:42:26.167Z,1.50
2023-01-21T06:44:55.534Z,1.50
2023-01-21T06:47:23.521Z,1.40
2023-01-21T06:49:51.508Z,1.40
2023-01-21T06:52:19.533Z,1.40
2023-01-21T06:54:48.249Z,1.50
2023-01-21T06:57:16.505Z,1.50
2023-01-21T06:59:44.481Z,1.50
2023-01-21T07:02:14.413Z,1.40
2023-01-21T07:04:42.500Z,1.50
2023-01-21T07:07:10.543Z,1.50
2023-01-21T07:09:38.624Z,1.50
2023-01-21T07:12:06.875Z,1.60
2023-01-21T07:14:34.867Z,1.50
2023-01-21T07:17:02.848Z,1.50
2023-01-21T07:19:32.233Z,1.40
2023-01-21T07:22:00.210Z,1.40
2023-01-21T07:24:28.496Z,1.40
2023-01-21T07:26:56.963Z,1.40
2023-01-21T07:29:25.318Z,1.40
2023-01-21T07:31:53.454Z,1.50
2023-01-21T07:34:21.507Z,1.50
2023-01-21T07:36:50.831Z,1.50
2023-01-21T07:39:18.837Z,1.60
2023-01-21T07:41:46.844Z,1.60
2023-01-21T07:44:14.893Z,1.60
2023-01-21T07:46:42.928Z,1.60
2023-01-21T07:49:12.987Z,1.60
2023-01-21T07:51:40.979Z,1.60
2023-01-21T07:54:11.618Z,1.50
2023-01-21T07:56:39.696Z,1.50
2023-01-21T07:59:08.014Z,1.50
2023-01-21T08:01:36.022Z,1.50
2023-01-21T08:04:04.032Z,1.50
2023-01-21T08:06:32.046Z,1.50
2023-01-21T08:09:00.115Z,1.40
2023-01-21T08:11:29.473Z,1.40
2023-01-21T08:13:57.476Z,1.50
2023-01-21T08:16:25.644Z,1.50
2023-01-21T08:18:54.590Z,1.50
2023-01-21T08:21:22.562Z,1.40
2023-01-21T08:23:50.721Z,1.40
2023-01-21T08:26:18.742Z,1.40
2023-01-21T08:28:48.264Z,1.40
2023-01-21T08:31:16.412Z,1.40
2023-01-21T08:33:44.415Z,1.40
2023-01-21T08:36:12.437Z,1.40
2023-01-21T08:38:40.872Z,1.30
2023-01-21T08:41:08.857Z,1.40
2023-01-21T08:43:36.991Z,1.40
2023-01-21T08:46:06.856Z,1.40
2023-01-21T08:48:34.859Z,1.50
2023-01-21T08:51:02.902Z,1.50
2023-01-21T08:53:30.957Z,1.50
2023-01-21T08:56:01.035Z,1.50
2023-01-21T08:58:29.512Z,1.60
2023-01-21T09:00:58.061Z,1.60
2023-01-21T09:03:27.506Z,1.60
2023-01-21T09:05:55.778Z,1.50
2023-01-21T09:08:23.809Z,1.60
2023-01-21T09:11:03.738Z,1.60
2023-01-21T09:13:33.604Z,1.60
2023-01-21T09:16:02.220Z,1.60
2023-01-21T09:18:31.617Z,1.50
2023-01-21T09:21:03.134Z,1.50
2023-01-21T09:23:34.104Z,1.50
2023-01-21T09:26:04.902Z,1.60
2023-01-21T09:28:33.941Z,1.60
2023-01-21T09:31:04.662Z,1.60
2023-01-21T09:33:36.396Z,1.70
2023-01-21T09:36:06.976Z,1.70
2023-01-21T09:38:35.361Z,1.70
2023-01-21T09:41:16.437Z,1.70
2023-01-21T09:43:49.062Z,1.70
2023-01-21T09:46:25.097Z,1.70
2023-01-21T09:48:56.151Z,1.80
2023-01-21T09:51:28.940Z,1.90
2023-01-21T09:53:59.377Z,1.90
2023-01-21T09:56:33.782Z,1.90
2023-01-21T09:59:08.387Z,2.00
2023-01-21T10:01:39.881Z,1.90
2023-01-21T10:04:29.992Z,1.90
2023-01-21T10:07:05.112Z,2.00
2023-01-21T10:09:45.214Z,2.00
2023-01-21T10:12:27.250Z,2.00
2023-01-21T10:15:19.401Z,2.00
2023-01-21T10:17:56.213Z,2.00
2023-01-21T10:20:28.931Z,2.10
2023-01-21T10:23:01.131Z,2.10
2023-01-21T10:25:32.272Z,2.10
2023-01-21T10:28:05.875Z,2.10
2023-01-21T10:30:37.714Z,2.10
2023-01-21T10:33:08.238Z,2.20
2023-01-21T10:36:09.471Z,2.20
2023-01-21T10:38:42.354Z,2.30
2023-01-21T10:41:31.629Z,2.30
2023-01-21T10:44:09.287Z,2.30
2023-01-21T10:46:47.410Z,2.30
2023-01-21T10:49:28.563Z,2.40
2023-01-21T10:52:03.910Z,2.40
2023-01-21T10:54:41.174Z,2.50
2023-01-21T10:57:21.145Z,2.50
2023-01-21T10:59:50.382Z,2.50
2023-01-21T11:02:25.750Z,2.50
2023-01-21T11:04:53.809Z,2.60
2023-01-21T11:07:23.743Z,2.70
2023-01-21T11:09:52.754Z,2.70
2023-01-21T11:12:24.171Z,2.70
2023-01-21T11:14:56.783Z,2.80
2023-01-21T11:17:33.745Z,2.80
2023-01-21T11:20:03.641Z,2.80
2023-01-21T11:22:33.947Z,2.80
2023-01-21T11:25:02.740Z,2.90
2023-01-21T11:27:35.794Z,2.90
2023-01-21T11:30:13.024Z,2.90
2023-01-21T11:32:52.986Z,3.00
2023-01-21T11:35:23.071Z,3.00
2023-01-21T11:37:52.546Z,3.00
2023-01-21T11:40:24.993Z,3.00
2023-01-21T11:42:54.939Z,3.00
2023-01-21T11:45:29.102Z,2.90
2023-01-21T11:47:58.305Z,2.90
2023-01-21T11:50:29.465Z,2.80
2023-01-21T11:53:17.468Z,2.80
2023-01-21T11:55:48.865Z,2.80
2023-01-21T11:58:20.591Z,2.70
2023-01-21T12:00:50.766Z,2.80
2023-01-21T12:03:21.469Z,2.80
2023-01-21T12:05:50.928Z,2.80
2023-01-21T12:08:24.729Z,2.80
2023-01-21T12:10:54.707Z,2.80
2023-01-21T12:13:27.757Z,2.80
2023-01-21T12:16:30.785Z,2.90
2023-01-21T12:19:29.901Z,2.90
2023-01-21T12:22:27.343Z,2.90
2023-01-21T12:25:20.487Z,2.90
2023-01-21T12:28:00.237Z,2.80
2023-01-21T12:30:36.000Z,2.80
2023-01-21T12:33:11.876Z,2.80
2023-01-21T12:35:43.017Z,2.80
2023-01-21T12:38:16.659Z,2.80
2023-01-21T12:40:51.229Z,2.90
2023-01-21T12:43:23.593Z,2.90
2023-01-21T12:45:54.601Z,2.90
2023-01-21T12:48:30.225Z,2.90
2023-01-21T12:51:02.292Z,2.90
2023-01-21T12:53:37.484Z,2.80
2023-01-21T12:56:28.436Z,2.80
2023-01-21T12:59:01.733Z,2.80
2023-01-21T13:01:42.133Z,2.90
2023-01-21T13:04:29.915Z,2.80
2023-01-21T13:07:01.780Z,2.90
2023-01-21T13:09:36.665Z,2.90
2023-01-21T13:12:12.536Z,2.90
2023-01-21T13:14:45.180Z,2.90
2023-01-21T13:17:18.536Z,2.80
2023-01-21T13:19:46.542Z,2.80
2023-01-21T13:22:28.666Z,2.80
2023-01-21T13:25:04.831Z,2.80
2023-01-21T13:27:43.660Z,2.80
2023-01-21T13:30:22.153Z,2.80
2023-01-21T13:33:00.496Z,2.80
2023-01-21T13:35:36.965Z,2.70
2023-01-21T13:38:16.862Z,2.60
2023-01-21T13:40:52.323Z,2.60
2023-01-21T13:43:37.118Z,2.60
2023-01-21T13:46:19.857Z,2.50
2023-01-21T13:49:04.250Z,2.30
2023-01-21T13:51:43.688Z,2.20
2023-01-21T13:54:35.980Z,2.10
2023-01-21T13:57:16.152Z,2.10
2023-01-21T13:59:50.369Z,2.10
2023-01-21T14:02:23.920Z,2.10
2023-01-21T14:04:57.285Z,2.00
2023-01-21T14:07:30.945Z,2.00
2023-01-21T14:10:05.130Z,2.00
2023-01-21T14:12:58.658Z,1.90
2023-01-21T14:15:40.470Z,1.90
2023-01-21T14:18:38.158Z,1.90
2023-01-21T14:21:29.135Z,2.00
2023-01-21T14:24:06.392Z,2.00
2023-01-21T14:27:03.555Z,2.00
2023-01-21T14:29:37.245Z,2.00
2023-01-21T14:32:14.211Z,2.00
2023-01-21T14:34:49.768Z,2.00
2023-01-21T14:37:24.472Z,2.00
2023-01-21T14:39:58.853Z,2.00
2023-01-21T14:42:42.388Z,1.90
2023-01-21T14:45:12.807Z,2.00
2023-01-21T14:47:49.991Z,2.00
2023-01-21T14:50:52.239Z,2.00
2023-01-21T14:53:24.253Z,2.00
2023-01-21T14:56:08.395Z,1.90
2023-01-21T14:58:37.826Z,1.80
2023-01-21T15:01:07.914Z,1.80
2023-01-21T15:03:49.753Z,1.80
2023-01-21T15:06:22.527Z,1.80
2023-01-21T15:08:53.240Z,1.80
2023-01-21T15:11:23.630Z,1.70
2023-01-21T15:14:03.953Z,1.80
2023-01-21T15:16:37.616Z,1.80
2023-01-21T15:19:32.555Z,1.80
2023-01-21T15:22:29.593Z,1.90
2023-01-21T15:25:25.225Z,1.80
2023-01-21T15:28:34.921Z,1.80
2023-01-21T15:31:05.639Z,1.80
2023-01-21T15:33:39.859Z,1.80
2023-01-21T15:36:21.328Z,1.80
2023-01-21T15:38:51.129Z,1.90
2023-01-21T15:41:28.589Z,1.90
2023-01-21T15:44:19.652Z,1.90
2023-01-21T15:46:53.638Z,1.90
2023-01-21T15:49:38.360Z,1.80
2023-01-21T15:52:24.086Z,1.80
2023-01-21T15:55:00.333Z,1.80
2023-01-21T15:57:43.802Z,1.80
2023-01-21T16:00:27.873Z,1.80
2023-01-21T16:03:00.863Z,1.70
2023-01-21T16:05:37.489Z,1.70
2023-01-21T16:08:18.755Z,1.70
2023-01-21T16:11:03.025Z,1.80
2023-01-21T16:13:44.458Z,1.80
2023-01-21T16:16:21.318Z,1.80
2023-01-21T16:18:54.669Z,1.80
2023-01-21T16:21:24.548Z,1.80
2023-01-21T16:23:58.326Z,1.80
2023-01-21T16:26:27.676Z,1.80
2023-01-21T16:28:55.777Z,1.80
2023-01-21T16:31:24.277Z,1.80
2023-01-21T16:33:53.857Z,1.80
2023-01-21T16:36:22.133Z,1.80
2023-01-21T16:38:50.186Z,1.90
2023-01-21T16:41:27.556Z,1.90
2023-01-21T16:44:00.817Z,1.80
2023-01-21T16:46:34.874Z,1.80
2023-01-21T16:49:05.356Z,1.70
2023-01-21T16:51:36.149Z,1.70
2023-01-21T16:54:26.292Z,1.70
2023-01-21T16:56:58.568Z,1.80
2023-01-21T16:59:29.156Z,1.80
2023-01-21T17:01:59.712Z,1.80
2023-01-21T17:04:29.956Z,1.80
2023-01-21T17:06:58.620Z,1.80
2023-01-21T17:09:30.960Z,1.80
2023-01-21T17:12:05.316Z,1.90
2023-01-21T17:14:35.533Z,1.90
2023-01-21T17:17:07.739Z,1.90
2023-01-21T17:19:38.163Z,2.00
2023-01-21T17:22:14.103Z,2.00
2023-01-21T17:24:55.919Z,2.00
2023-01-21T17:27:26.389Z,2.00
2023-01-21T17:29:54.495Z,2.00
2023-01-21T17:32:27.594Z,2.00
2023-01-21T17:35:12.331Z,1.90
2023-01-21T17:37:45.269Z,1.90
2023-01-21T17:40:31.524Z,1.90
2023-01-21T17:43:09.846Z,1.90
2023-01-21T17:45:43.713Z,1.90
2023-01-21T17:48:23.554Z,2.00
2023-01-21T17:50:52.567Z,2.00
2023-01-21T17:53:25.893Z,2.00
2023-01-21T17:55:59.547Z,2.00
2023-01-21T17:58:50.178Z,1.90
2023-01-21T18:01:19.557Z,1.90
2023-01-21T18:03:47.696Z,2.00
2023-01-21T18:06:19.766Z,2.00
2023-01-21T18:08:47.789Z,2.00
2023-01-21T18:11:17.312Z,2.00
2023-01-21T18:13:45.442Z,2.10
2023-01-21T18:16:15.175Z,2.20
2023-01-21T18:18:43.262Z,2.20
2023-01-21T18:21:19.335Z,2.20
2023-01-21T18:23:47.522Z,2.10
2023-01-21T18:26:23.638Z,2.10
2023-01-21T18:28:51.619Z,2.20
2023-01-21T18:31:21.191Z,2.20
2023-01-21T18:33:49.292Z,2.10
2023-01-21T18:36:17.251Z,2.10
2023-01-21T18:38:45.486Z,2.10
2023-01-21T18:41:13.542Z,2.10
2023-01-21T18:43:42.247Z,2.10
2023-01-21T18:46:13.336Z,2.10
2023-01-21T18:48:43.220Z,2.10
2023-01-21T18:51:11.866Z,2.10
2023-01-21T18:53:40.132Z,2.10
2023-01-21T18:56:13.621Z,2.10
2023-01-21T18:58:41.750Z,2.00
2023-01-21T19:01:21.783Z,2.00
2023-01-21T19:03:53.435Z,2.10
2023-01-21T19:06:21.910Z,2.10
2023-01-21T19:08:49.913Z,2.10
2023-01-21T19:11:18.072Z,2.10
2023-01-21T19:13:46.112Z,2.10
2023-01-21T19:16:17.275Z,2.10
2023-01-21T19:18:45.554Z,2.10
2023-01-21T19:21:14.974Z,2.10
2023-01-21T19:23:42.988Z,2.10
2023-01-21T19:26:13.746Z,2.10
2023-01-21T19:28:41.914Z,2.10
2023-01-21T19:31:09.964Z,2.10
2023-01-21T19:33:38.155Z,2.10
2023-01-21T19:36:15.008Z,2.20
2023-01-21T19:38:46.714Z,2.20
2023-01-21T19:41:14.677Z,2.20
2023-01-21T19:43:42.710Z,2.20
2023-01-21T19:46:12.554Z,2.20
2023-01-21T19:48:41.487Z,2.20
2023-01-21T19:51:09.885Z,2.10
2023-01-21T19:53:37.921Z,2.20
2023-01-21T19:56:08.145Z,2.20
2023-01-21T19:58:36.338Z,2.20
2023-01-21T20:01:04.432Z,2.10
2023-01-21T20:03:32.461Z,2.10
2023-01-21T20:06:03.136Z,2.20
2023-01-21T20:08:33.276Z,2.10
2023-01-21T20:11:01.291Z,2.20
2023-01-21T20:13:35.568Z,2.10
2023-01-21T20:16:12.704Z,2.20
2023-01-21T20:18:42.335Z,2.20
2023-01-21T20:21:10.494Z,2.20
2023-01-21T20:23:39.155Z,2.30
2023-01-21T20:26:09.292Z,2.30
2023-01-21T20:28:41.037Z,2.30
2023-01-21T20:31:10.601Z,2.20
2023-01-21T20:33:38.735Z,2.20
2023-01-21T20:36:09.099Z,2.20
2023-01-21T20:38:39.367Z,2.20
2023-01-21T20:41:07.427Z,2.30
2023-01-21T20:43:35.425Z,2.30
2023-01-21T20:46:08.463Z,2.20
2023-01-21T20:48:39.624Z,2.20
2023-01-21T20:51:07.926Z,2.30
2023-01-21T20:53:36.133Z,2.20
2023-01-21T20:56:16.883Z,2.30
2023-01-21T20:58:47.646Z,2.20
2023-01-21T21:01:19.442Z,2.20
2023-01-21T21:03:47.776Z,2.30
2023-01-21T21:06:17.210Z,2.20
2023-01-21T21:08:45.285Z,2.20
2023-01-21T21:11:15.671Z,2.20
2023-01-21T21:13:43.963Z,2.20
2023-01-21T21:16:20.121Z,2.20
2023-01-21T21:18:48.906Z,2.20
2023-01-21T21:21:17.807Z,2.20
2023-01-21T21:23:46.813Z,2.20
2023-01-21T21:26:22.082Z,2.20
2023-01-21T21:28:51.377Z,2.20
2023-01-21T21:31:20.941Z,2.20
2023-01-21T21:33:49.033Z,2.30
2023-01-21T21:36:18.725Z,2.30
2023-01-21T21:38:47.588Z,2.20
2023-01-21T21:41:34.350Z,2.30
2023-01-21T21:44:02.389Z,2.20
2023-01-21T21:46:49.128Z,2.20
2023-01-21T21:49:17.272Z,2.20
2023-01-21T21:51:45.980Z,2.20
2023-01-21T21:54:15.275Z,2.20
2023-01-21T21:56:44.026Z,2.20
2023-01-21T21:59:12.771Z,2.20
2023-01-21T22:01:43.154Z,2.20
2023-01-21T22:04:11.531Z,2.20
2023-01-21T22:06:39.868Z,2.20
2023-01-21T22:09:08.331Z,2.10
2023-01-21T22:11:36.494Z,2.20
2023-01-21T22:14:04.877Z,2.20
2023-01-21T22:16:33.923Z,2.20
2023-01-21T22:19:03.358Z,2.20
2023-01-21T22:21:33.189Z,2.10
2023-01-21T22:24:01.941Z,2.10
2023-01-21T22:26:30.269Z,2.10
2023-01-21T22:28:58.413Z,2.20
2023-01-21T22:31:28.000Z,2.20
2023-01-21T22:33:56.570Z,2.10
2023-01-21T22:36:28.171Z,2.20
2023-01-21T22:38:56.329Z,2.20
2023-01-21T22:41:25.459Z,2.10
2023-01-21T22:43:54.146Z,2.20
2023-01-21T22:46:23.504Z,2.20
2023-01-21T22:48:52.098Z,2.20
2023-01-21T22:51:21.366Z,2.20
2023-01-21T22:53:50.896Z,2.10
2023-01-21T22:56:21.191Z,2.10
2023-01-21T22:58:50.227Z,2.10
2023-01-21T23:01:23.499Z,2.20
2023-01-21T23:03:51.676Z,2.20
2023-01-21T23:06:20.282Z,2.20
2023-01-21T23:08:50.218Z,2.20
2023-01-21T23:11:19.556Z,2.20
2023-01-21T23:13:49.097Z,2.10
2023-01-21T23:16:19.087Z,2.20
2023-01-21T23:18:47.222Z,2.10
2023-01-21T23:21:17.870Z,2.20
2023-01-21T23:23:46.035Z,2.20
2023-01-21T23:26:16.358Z,2.20
2023-01-21T23:28:44.611Z,2.20
2023-01-21T23:31:15.784Z,2.20
2023-01-21T23:33:44.148Z,2.20
2023-01-21T23:36:13.865Z,2.20
2023-01-21T23:38:42.537Z,2.20
2023-01-21T23:41:12.712Z,2.20
2023-01-21T23:43:42.292Z,2.20
2023-01-21T23:46:13.327Z,2.20
2023-01-21T23:48:41.352Z,2.20
2023-01-21T23:51:13.017Z,2.10
2023-01-21T23:53:41.089Z,2.10
2023-01-21T23:56:11.696Z,2.10
2023-01-21T23:58:41.193Z,2.20
